sensor_id;sensor_type;location;lat;lon;timestamp;pressure;altitude;pressure_sealevel;temperature;humidity
69306;BME280;56427;51.580;4.656;2023-08-30T00:00:17;100922.66;;;12.06;77.98
69306;BME280;56427;51.580;4.656;2023-08-30T00:02:44;100921.75;;;12.07;77.80
69306;BME280;56427;51.580;4.656;2023-08-30T00:05:09;100919.38;;;12.02;78.24
69306;BME280;56427;51.580;4.656;2023-08-30T00:07:35;100922.09;;;12.01;77.86
69306;BME280;56427;51.580;4.656;2023-08-30T00:10:00;100902.66;;;11.91;78.63
69306;BME280;56427;51.580;4.656;2023-08-30T00:12:27;100917.34;;;11.92;78.37
69306;BME280;56427;51.580;4.656;2023-08-30T00:14:53;100908.72;;;11.91;78.40
69306;BME280;56427;51.580;4.656;2023-08-30T00:17:18;100905.59;;;11.84;78.53
69306;BME280;56427;51.580;4.656;2023-08-30T00:19:45;100906.81;;;11.77;78.88
69306;BME280;56427;51.580;4.656;2023-08-30T00:22:11;100896.72;;;11.71;79.22
69306;BME280;56427;51.580;4.656;2023-08-30T00:24:37;100891.16;;;11.61;79.68
69306;BME280;56427;51.580;4.656;2023-08-30T00:27:02;100889.16;;;11.67;79.37
69306;BME280;56427;51.580;4.656;2023-08-30T00:29:28;100896.13;;;11.66;79.32
69306;BME280;56427;51.580;4.656;2023-08-30T00:31:54;100885.19;;;11.59;79.57
69306;BME280;56427;51.580;4.656;2023-08-30T00:34:19;100891.78;;;11.49;80.09
69306;BME280;56427;51.580;4.656;2023-08-30T00:36:45;100886.75;;;11.64;78.99
69306;BME280;56427;51.580;4.656;2023-08-30T00:39:10;100889.19;;;11.49;79.58
69306;BME280;56427;51.580;4.656;2023-08-30T00:41:35;100884.25;;;11.45;80.24
69306;BME280;56427;51.580;4.656;2023-08-30T00:44:01;100871.16;;;11.46;80.15
69306;BME280;56427;51.580;4.656;2023-08-30T00:46:27;100876.88;;;11.53;79.78
69306;BME280;56427;51.580;4.656;2023-08-30T00:48:53;100878.25;;;11.60;79.00
69306;BME280;56427;51.580;4.656;2023-08-30T00:51:19;100879.25;;;11.57;79.44
69306;BME280;56427;51.580;4.656;2023-08-30T00:53:45;100877.03;;;11.50;79.49
69306;BME280;56427;51.580;4.656;2023-08-30T00:56:11;100872.16;;;11.44;80.04
69306;BME280;56427;51.580;4.656;2023-08-30T00:58:37;100876.81;;;11.54;79.38
69306;BME280;56427;51.580;4.656;2023-08-30T01:01:03;100875.72;;;11.58;79.42
69306;BME280;56427;51.580;4.656;2023-08-30T01:03:32;100867.00;;;11.59;79.43
69306;BME280;56427;51.580;4.656;2023-08-30T01:05:57;100858.91;;;11.66;78.97
69306;BME280;56427;51.580;4.656;2023-08-30T01:08:23;100861.50;;;11.66;78.71
69306;BME280;56427;51.580;4.656;2023-08-30T01:11:16;100860.66;;;11.65;78.89
69306;BME280;56427;51.580;4.656;2023-08-30T01:13:50;100856.31;;;11.66;78.99
69306;BME280;56427;51.580;4.656;2023-08-30T01:16:18;100854.63;;;11.65;78.96
69306;BME280;56427;51.580;4.656;2023-08-30T01:18:46;100859.66;;;11.68;78.48
69306;BME280;56427;51.580;4.656;2023-08-30T01:21:30;100852.69;;;11.68;78.79
69306;BME280;56427;51.580;4.656;2023-08-30T01:23:59;100860.75;;;11.64;79.25
69306;BME280;56427;51.580;4.656;2023-08-30T01:27:04;100850.59;;;11.59;79.31
69306;BME280;56427;51.580;4.656;2023-08-30T01:29:30;100858.38;;;11.59;79.49
69306;BME280;56427;51.580;4.656;2023-08-30T01:31:56;100855.69;;;11.60;79.39
69306;BME280;56427;51.580;4.656;2023-08-30T01:34:22;100857.94;;;11.51;79.56
69306;BME280;56427;51.580;4.656;2023-08-30T01:36:48;100858.09;;;11.48;80.07
69306;BME280;56427;51.580;4.656;2023-08-30T01:39:15;100858.69;;;11.53;79.64
69306;BME280;56427;51.580;4.656;2023-08-30T01:41:41;100855.34;;;11.51;79.85
69306;BME280;56427;51.580;4.656;2023-08-30T01:44:07;100847.03;;;11.44;80.08
69306;BME280;56427;51.580;4.656;2023-08-30T01:46:34;100844.47;;;11.27;80.56
69306;BME280;56427;51.580;4.656;2023-08-30T01:49:02;100850.41;;;11.12;81.33
69306;BME280;56427;51.580;4.656;2023-08-30T01:51:28;100849.66;;;11.10;81.12
69306;BME280;56427;51.580;4.656;2023-08-30T01:53:54;100850.19;;;10.99;81.46
69306;BME280;56427;51.580;4.656;2023-08-30T01:56:20;100849.22;;;11.01;81.84
69306;BME280;56427;51.580;4.656;2023-08-30T01:58:46;100846.44;;;10.87;81.92
69306;BME280;56427;51.580;4.656;2023-08-30T02:01:12;100842.25;;;10.85;82.07
69306;BME280;56427;51.580;4.656;2023-08-30T02:03:37;100840.56;;;10.84;82.57
69306;BME280;56427;51.580;4.656;2023-08-30T02:06:06;100837.50;;;10.93;82.19
69306;BME280;56427;51.580;4.656;2023-08-30T02:09:04;100829.28;;;10.85;82.46
69306;BME280;56427;51.580;4.656;2023-08-30T02:11:35;100825.00;;;10.84;82.18
69306;BME280;56427;51.580;4.656;2023-08-30T02:14:05;100830.56;;;10.93;82.31
69306;BME280;56427;51.580;4.656;2023-08-30T02:16:32;100825.22;;;10.96;82.04
69306;BME280;56427;51.580;4.656;2023-08-30T02:18:58;100831.09;;;11.00;81.93
69306;BME280;56427;51.580;4.656;2023-08-30T02:21:24;100835.44;;;10.99;82.05
69306;BME280;56427;51.580;4.656;2023-08-30T02:23:50;100841.09;;;10.90;82.33
69306;BME280;56427;51.580;4.656;2023-08-30T02:26:18;100837.16;;;11.00;81.77
69306;BME280;56427;51.580;4.656;2023-08-30T02:28:44;100848.19;;;11.04;82.04
69306;BME280;56427;51.580;4.656;2023-08-30T02:31:09;100833.06;;;11.12;81.97
69306;BME280;56427;51.580;4.656;2023-08-30T02:33:34;100824.09;;;11.19;81.49
69306;BME280;56427;51.580;4.656;2023-08-30T02:36:02;100829.94;;;11.23;81.62
69306;BME280;56427;51.580;4.656;2023-08-30T02:38:28;100830.31;;;11.32;81.27
69306;BME280;56427;51.580;4.656;2023-08-30T02:40:53;100828.06;;;11.42;81.01
69306;BME280;56427;51.580;4.656;2023-08-30T02:43:18;100826.31;;;11.43;80.67
69306;BME280;56427;51.580;4.656;2023-08-30T02:45:44;100826.16;;;11.46;80.85
69306;BME280;56427;51.580;4.656;2023-08-30T02:48:09;100817.38;;;11.48;80.65
69306;BME280;56427;51.580;4.656;2023-08-30T02:50:34;100809.44;;;11.51;81.11
69306;BME280;56427;51.580;4.656;2023-08-30T02:53:00;100800.84;;;11.49;81.14
69306;BME280;56427;51.580;4.656;2023-08-30T02:55:25;100799.88;;;11.52;81.06
69306;BME280;56427;51.580;4.656;2023-08-30T02:57:50;100791.72;;;11.42;81.69
69306;BME280;56427;51.580;4.656;2023-08-30T03:00:16;100787.28;;;11.44;81.58
69306;BME280;56427;51.580;4.656;2023-08-30T03:02:41;100776.81;;;11.46;82.03
69306;BME280;56427;51.580;4.656;2023-08-30T03:05:07;100784.44;;;11.49;81.78
69306;BME280;56427;51.580;4.656;2023-08-30T03:07:32;100769.63;;;11.51;81.82
69306;BME280;56427;51.580;4.656;2023-08-30T03:09:58;100766.59;;;11.58;81.78
69306;BME280;56427;51.580;4.656;2023-08-30T03:12:23;100763.78;;;11.63;81.63
69306;BME280;56427;51.580;4.656;2023-08-30T03:14:49;100762.53;;;11.70;81.49
69306;BME280;56427;51.580;4.656;2023-08-30T03:17:14;100759.16;;;11.68;81.48
69306;BME280;56427;51.580;4.656;2023-08-30T03:19:39;100752.78;;;11.74;81.38
69306;BME280;56427;51.580;4.656;2023-08-30T03:22:05;100743.69;;;11.82;81.12
69306;BME280;56427;51.580;4.656;2023-08-30T03:24:30;100738.63;;;11.79;81.40
69306;BME280;56427;51.580;4.656;2023-08-30T03:26:55;100739.44;;;11.80;81.54
69306;BME280;56427;51.580;4.656;2023-08-30T03:29:21;100719.78;;;11.76;81.83
69306;BME280;56427;51.580;4.656;2023-08-30T03:31:47;100726.63;;;11.77;81.63
69306;BME280;56427;51.580;4.656;2023-08-30T03:34:12;100716.66;;;11.69;81.86
69306;BME280;56427;51.580;4.656;2023-08-30T03:36:38;100714.63;;;11.74;81.82
69306;BME280;56427;51.580;4.656;2023-08-30T03:39:04;100716.50;;;11.72;81.86
69306;BME280;56427;51.580;4.656;2023-08-30T03:41:29;100707.63;;;11.76;82.02
69306;BME280;56427;51.580;4.656;2023-08-30T03:43:55;100711.56;;;11.83;81.54
69306;BME280;56427;51.580;4.656;2023-08-30T03:46:20;100722.72;;;11.85;81.25
69306;BME280;56427;51.580;4.656;2023-08-30T03:48:45;100719.97;;;11.88;81.42
69306;BME280;56427;51.580;4.656;2023-08-30T03:51:11;100714.00;;;11.86;81.46
69306;BME280;56427;51.580;4.656;2023-08-30T03:53:36;100700.94;;;11.88;81.45
69306;BME280;56427;51.580;4.656;2023-08-30T03:56:02;100704.44;;;11.87;81.66
69306;BME280;56427;51.580;4.656;2023-08-30T03:58:28;100707.88;;;11.87;81.88
69306;BME280;56427;51.580;4.656;2023-08-30T04:00:54;100709.56;;;11.88;81.69
69306;BME280;56427;51.580;4.656;2023-08-30T04:03:19;100704.63;;;11.84;82.03
69306;BME280;56427;51.580;4.656;2023-08-30T04:05:44;100698.28;;;11.72;82.80
69306;BME280;56427;51.580;4.656;2023-08-30T04:08:10;100694.13;;;11.70;82.87
69306;BME280;56427;51.580;4.656;2023-08-30T04:10:40;100696.38;;;11.76;82.79
69306;BME280;56427;51.580;4.656;2023-08-30T04:13:06;100692.53;;;11.83;82.62
69306;BME280;56427;51.580;4.656;2023-08-30T04:15:37;100691.19;;;11.92;82.54
69306;BME280;56427;51.580;4.656;2023-08-30T04:18:04;100691.03;;;11.95;82.47
69306;BME280;56427;51.580;4.656;2023-08-30T04:20:30;100686.13;;;12.04;82.17
69306;BME280;56427;51.580;4.656;2023-08-30T04:22:56;100676.41;;;12.08;82.07
69306;BME280;56427;51.580;4.656;2023-08-30T04:25:23;100673.50;;;12.12;81.86
69306;BME280;56427;51.580;4.656;2023-08-30T04:27:48;100662.47;;;12.09;82.28
69306;BME280;56427;51.580;4.656;2023-08-30T04:30:15;100662.22;;;12.13;82.11
69306;BME280;56427;51.580;4.656;2023-08-30T04:32:40;100655.72;;;12.21;82.14
69306;BME280;56427;51.580;4.656;2023-08-30T04:35:06;100659.44;;;12.31;81.80
69306;BME280;56427;51.580;4.656;2023-08-30T04:37:31;100649.16;;;12.29;81.76
69306;BME280;56427;51.580;4.656;2023-08-30T04:39:57;100652.50;;;12.31;82.04
69306;BME280;56427;51.580;4.656;2023-08-30T04:42:22;100650.56;;;12.35;82.28
69306;BME280;56427;51.580;4.656;2023-08-30T04:44:48;100654.66;;;12.39;82.14
69306;BME280;56427;51.580;4.656;2023-08-30T04:47:13;100648.06;;;12.48;81.98
69306;BME280;56427;51.580;4.656;2023-08-30T04:49:38;100644.19;;;12.55;81.66
69306;BME280;56427;51.580;4.656;2023-08-30T04:52:04;100651.50;;;12.62;81.52
69306;BME280;56427;51.580;4.656;2023-08-30T04:54:30;100653.66;;;12.56;81.69
69306;BME280;56427;51.580;4.656;2023-08-30T04:56:55;100642.13;;;12.60;81.74
69306;BME280;56427;51.580;4.656;2023-08-30T04:59:21;100645.69;;;12.73;81.33
69306;BME280;56427;51.580;4.656;2023-08-30T05:01:47;100646.50;;;12.74;81.39
69306;BME280;56427;51.580;4.656;2023-08-30T05:04:12;100646.78;;;12.69;81.77
69306;BME280;56427;51.580;4.656;2023-08-30T05:06:37;100641.13;;;12.77;81.49
69306;BME280;56427;51.580;4.656;2023-08-30T05:09:03;100641.66;;;12.82;81.54
69306;BME280;56427;51.580;4.656;2023-08-30T05:11:28;100641.41;;;12.86;81.59
69306;BME280;56427;51.580;4.656;2023-08-30T05:13:55;100644.00;;;12.86;81.32
69306;BME280;56427;51.580;4.656;2023-08-30T05:16:20;100643.47;;;12.95;81.46
69306;BME280;56427;51.580;4.656;2023-08-30T05:18:46;100652.28;;;12.93;81.12
69306;BME280;56427;51.580;4.656;2023-08-30T05:21:13;100652.47;;;13.04;81.06
69306;BME280;56427;51.580;4.656;2023-08-30T05:23:39;100648.94;;;13.05;80.80
69306;BME280;56427;51.580;4.656;2023-08-30T05:26:10;100654.41;;;13.15;81.36
69306;BME280;56427;51.580;4.656;2023-08-30T05:28:39;100648.06;;;13.19;82.23
69306;BME280;56427;51.580;4.656;2023-08-30T05:31:05;100646.41;;;13.04;82.31
69306;BME280;56427;51.580;4.656;2023-08-30T05:33:31;100648.09;;;13.05;83.65
69306;BME280;56427;51.580;4.656;2023-08-30T05:35:56;100638.59;;;13.18;83.63
69306;BME280;56427;51.580;4.656;2023-08-30T05:38:22;100643.09;;;13.02;84.37
69306;BME280;56427;51.580;4.656;2023-08-30T05:40:47;100638.50;;;13.05;84.68
69306;BME280;56427;51.580;4.656;2023-08-30T05:43:13;100636.28;;;12.85;85.85
69306;BME280;56427;51.580;4.656;2023-08-30T05:45:38;100631.00;;;12.86;86.04
69306;BME280;56427;51.580;4.656;2023-08-30T05:48:04;100634.91;;;12.79;86.51
69306;BME280;56427;51.580;4.656;2023-08-30T05:50:30;100636.28;;;12.85;87.28
69306;BME280;56427;51.580;4.656;2023-08-30T05:52:55;100625.78;;;12.72;87.52
69306;BME280;56427;51.580;4.656;2023-08-30T05:55:20;100632.41;;;12.63;88.18
69306;BME280;56427;51.580;4.656;2023-08-30T05:57:46;100622.00;;;12.63;88.29
69306;BME280;56427;51.580;4.656;2023-08-30T06:00:12;100619.44;;;12.62;88.62
69306;BME280;56427;51.580;4.656;2023-08-30T06:02:39;100618.09;;;12.71;88.66
69306;BME280;56427;51.580;4.656;2023-08-30T06:05:05;100605.34;;;12.66;89.11
69306;BME280;56427;51.580;4.656;2023-08-30T06:07:31;100604.78;;;12.61;89.43
69306;BME280;56427;51.580;4.656;2023-08-30T06:09:57;100590.09;;;12.60;89.75
69306;BME280;56427;51.580;4.656;2023-08-30T06:12:22;100580.06;;;12.54;89.92
69306;BME280;56427;51.580;4.656;2023-08-30T06:14:48;100571.22;;;12.56;90.15
69306;BME280;56427;51.580;4.656;2023-08-30T06:17:17;100574.38;;;12.61;90.46
69306;BME280;56427;51.580;4.656;2023-08-30T06:19:43;100566.69;;;12.46;90.55
69306;BME280;56427;51.580;4.656;2023-08-30T06:22:09;100566.69;;;12.46;90.76
69306;BME280;56427;51.580;4.656;2023-08-30T06:24:34;100564.91;;;12.60;91.11
69306;BME280;56427;51.580;4.656;2023-08-30T06:27:00;100569.44;;;12.57;90.99
69306;BME280;56427;51.580;4.656;2023-08-30T06:29:25;100568.63;;;12.56;90.97
69306;BME280;56427;51.580;4.656;2023-08-30T06:31:50;100566.78;;;12.58;91.01
69306;BME280;56427;51.580;4.656;2023-08-30T06:34:16;100557.00;;;12.62;90.94
69306;BME280;56427;51.580;4.656;2023-08-30T06:36:41;100558.03;;;12.59;91.09
69306;BME280;56427;51.580;4.656;2023-08-30T06:39:07;100564.44;;;12.68;91.06
69306;BME280;56427;51.580;4.656;2023-08-30T06:41:32;100564.53;;;12.66;91.10
69306;BME280;56427;51.580;4.656;2023-08-30T06:43:57;100559.22;;;12.68;91.27
69306;BME280;56427;51.580;4.656;2023-08-30T06:46:23;100556.00;;;12.64;91.24
69306;BME280;56427;51.580;4.656;2023-08-30T06:48:48;100556.63;;;12.68;91.53
69306;BME280;56427;51.580;4.656;2023-08-30T06:51:14;100551.81;;;12.76;91.57
69306;BME280;56427;51.580;4.656;2023-08-30T06:53:39;100553.38;;;12.79;91.53
69306;BME280;56427;51.580;4.656;2023-08-30T06:56:05;100557.34;;;12.84;91.61
69306;BME280;56427;51.580;4.656;2023-08-30T06:58:30;100553.81;;;12.85;91.61
69306;BME280;56427;51.580;4.656;2023-08-30T07:00:57;100551.00;;;12.88;91.44
69306;BME280;56427;51.580;4.656;2023-08-30T07:03:23;100553.16;;;12.96;91.29
69306;BME280;56427;51.580;4.656;2023-08-30T07:05:53;100553.72;;;13.01;91.29
69306;BME280;56427;51.580;4.656;2023-08-30T07:08:19;100548.28;;;13.04;91.44
69306;BME280;56427;51.580;4.656;2023-08-30T07:10:44;100551.44;;;13.09;91.35
69306;BME280;56427;51.580;4.656;2023-08-30T07:13:09;100547.31;;;13.19;91.30
69306;BME280;56427;51.580;4.656;2023-08-30T07:15:39;100543.88;;;13.19;91.26
69306;BME280;56427;51.580;4.656;2023-08-30T07:18:06;100537.38;;;13.26;91.19
69306;BME280;56427;51.580;4.656;2023-08-30T07:20:32;100549.94;;;13.34;90.96
69306;BME280;56427;51.580;4.656;2023-08-30T07:22:57;100550.16;;;13.43;91.12
69306;BME280;56427;51.580;4.656;2023-08-30T07:25:23;100551.63;;;13.47;91.19
69306;BME280;56427;51.580;4.656;2023-08-30T07:27:49;100538.06;;;13.42;91.14
69306;BME280;56427;51.580;4.656;2023-08-30T07:30:15;100535.28;;;13.45;91.21
69306;BME280;56427;51.580;4.656;2023-08-30T07:32:40;100543.75;;;13.62;91.07
69306;BME280;56427;51.580;4.656;2023-08-30T07:35:06;100541.03;;;13.63;90.94
69306;BME280;56427;51.580;4.656;2023-08-30T07:37:31;100538.53;;;13.62;91.25
69306;BME280;56427;51.580;4.656;2023-08-30T07:39:57;100532.59;;;13.60;91.01
69306;BME280;56427;51.580;4.656;2023-08-30T07:42:22;100541.97;;;13.62;90.90
69306;BME280;56427;51.580;4.656;2023-08-30T07:44:48;100543.16;;;13.71;90.90
69306;BME280;56427;51.580;4.656;2023-08-30T07:47:13;100540.44;;;13.72;90.81
69306;BME280;56427;51.580;4.656;2023-08-30T07:49:39;100540.22;;;13.75;90.65
69306;BME280;56427;51.580;4.656;2023-08-30T07:52:04;100545.16;;;13.93;91.08
69306;BME280;56427;51.580;4.656;2023-08-30T07:54:31;100538.41;;;14.03;90.76
69306;BME280;56427;51.580;4.656;2023-08-30T07:56:56;100535.47;;;14.08;90.57
69306;BME280;56427;51.580;4.656;2023-08-30T07:59:21;100535.97;;;14.38;90.81
69306;BME280;56427;51.580;4.656;2023-08-30T08:01:47;100527.00;;;14.42;89.97
69306;BME280;56427;51.580;4.656;2023-08-30T08:04:12;100536.25;;;14.84;89.23
69306;BME280;56427;51.580;4.656;2023-08-30T08:06:37;100529.97;;;14.87;88.68
69306;BME280;56427;51.580;4.656;2023-08-30T08:09:03;100525.16;;;14.94;88.43
69306;BME280;56427;51.580;4.656;2023-08-30T08:11:29;100531.59;;;15.01;88.36
69306;BME280;56427;51.580;4.656;2023-08-30T08:13:54;100535.66;;;15.05;88.38
69306;BME280;56427;51.580;4.656;2023-08-30T08:16:19;100541.00;;;15.03;88.07
69306;BME280;56427;51.580;4.656;2023-08-30T08:18:45;100540.84;;;15.18;88.33
69306;BME280;56427;51.580;4.656;2023-08-30T08:21:11;100534.72;;;15.30;88.00
69306;BME280;56427;51.580;4.656;2023-08-30T08:23:36;100538.50;;;15.26;87.95
69306;BME280;56427;51.580;4.656;2023-08-30T08:26:02;100538.38;;;15.51;87.39
69306;BME280;56427;51.580;4.656;2023-08-30T08:28:33;100536.91;;;15.36;87.50
69306;BME280;56427;51.580;4.656;2023-08-30T08:30:58;100533.28;;;15.50;88.27
69306;BME280;56427;51.580;4.656;2023-08-30T08:33:24;100538.31;;;15.88;88.24
69306;BME280;56427;51.580;4.656;2023-08-30T08:35:49;100529.34;;;16.48;84.08
69306;BME280;56427;51.580;4.656;2023-08-30T08:38:15;100532.78;;;16.37;84.66
69306;BME280;56427;51.580;4.656;2023-08-30T08:40:40;100528.38;;;16.15;85.73
69306;BME280;56427;51.580;4.656;2023-08-30T08:43:06;100539.50;;;15.95;86.71
69306;BME280;56427;51.580;4.656;2023-08-30T08:45:35;100544.28;;;16.01;86.51
69306;BME280;56427;51.580;4.656;2023-08-30T08:48:05;100551.84;;;15.82;87.05
69306;BME280;56427;51.580;4.656;2023-08-30T08:50:32;100542.59;;;16.00;86.43
69306;BME280;56427;51.580;4.656;2023-08-30T08:52:57;100551.44;;;16.33;86.54
69306;BME280;56427;51.580;4.656;2023-08-30T08:55:25;100559.44;;;16.65;85.42
69306;BME280;56427;51.580;4.656;2023-08-30T08:57:53;100553.38;;;16.98;84.56
69306;BME280;56427;51.580;4.656;2023-08-30T09:00:19;100559.31;;;17.00;84.28
69306;BME280;56427;51.580;4.656;2023-08-30T09:02:45;100557.88;;;16.96;83.37
69306;BME280;56427;51.580;4.656;2023-08-30T09:05:11;100564.59;;;17.32;80.46
69306;BME280;56427;51.580;4.656;2023-08-30T09:07:37;100570.88;;;16.97;79.94
69306;BME280;56427;51.580;4.656;2023-08-30T09:10:03;100566.94;;;16.58;80.21
69306;BME280;56427;51.580;4.656;2023-08-30T09:12:32;100564.53;;;16.33;79.41
69306;BME280;56427;51.580;4.656;2023-08-30T09:14:58;100567.44;;;16.41;81.30
69306;BME280;56427;51.580;4.656;2023-08-30T09:17:35;100561.59;;;16.60;80.01
69306;BME280;56427;51.580;4.656;2023-08-30T09:20:11;100573.41;;;16.77;78.38
69306;BME280;56427;51.580;4.656;2023-08-30T09:22:40;100571.25;;;18.00;76.70
69306;BME280;56427;51.580;4.656;2023-08-30T09:25:09;100573.28;;;18.69;73.45
69306;BME280;56427;51.580;4.656;2023-08-30T09:27:35;100574.63;;;19.04;72.13
69306;BME280;56427;51.580;4.656;2023-08-30T09:30:03;100562.81;;;19.87;68.25
69306;BME280;56427;51.580;4.656;2023-08-30T09:32:29;100569.59;;;19.99;66.55
69306;BME280;56427;51.580;4.656;2023-08-30T09:34:55;100560.91;;;20.73;65.24
69306;BME280;56427;51.580;4.656;2023-08-30T09:37:23;100561.13;;;19.96;65.24
69306;BME280;56427;51.580;4.656;2023-08-30T09:39:52;100577.91;;;18.56;67.63
69306;BME280;56427;51.580;4.656;2023-08-30T09:42:20;100563.25;;;19.63;65.85
69306;BME280;56427;51.580;4.656;2023-08-30T09:44:45;100561.19;;;18.57;66.41
69306;BME280;56427;51.580;4.656;2023-08-30T09:47:12;100559.78;;;19.72;65.61
69306;BME280;56427;51.580;4.656;2023-08-30T09:49:44;100566.25;;;19.97;64.04
69306;BME280;56427;51.580;4.656;2023-08-30T09:52:10;100570.03;;;21.06;61.72
69306;BME280;56427;51.580;4.656;2023-08-30T09:54:38;100563.66;;;21.26;59.38
69306;BME280;56427;51.580;4.656;2023-08-30T09:57:07;100560.47;;;19.84;63.13
69306;BME280;56427;51.580;4.656;2023-08-30T09:59:32;100574.44;;;18.76;66.68
69306;BME280;56427;51.580;4.656;2023-08-30T10:01:58;100576.78;;;18.49;65.68
69306;BME280;56427;51.580;4.656;2023-08-30T10:04:26;100572.25;;;18.81;65.50
69306;BME280;56427;51.580;4.656;2023-08-30T10:06:53;100572.13;;;18.62;65.20
69306;BME280;56427;51.580;4.656;2023-08-30T10:09:21;100572.13;;;18.62;67.98
69306;BME280;56427;51.580;4.656;2023-08-30T10:11:49;100581.41;;;18.66;68.20
69306;BME280;56427;51.580;4.656;2023-08-30T10:14:16;100588.94;;;18.50;66.52
69306;BME280;56427;51.580;4.656;2023-08-30T10:16:47;100582.25;;;19.07;66.82
69306;BME280;56427;51.580;4.656;2023-08-30T10:19:31;100579.84;;;18.84;66.21
69306;BME280;56427;51.580;4.656;2023-08-30T10:22:04;100587.53;;;18.46;66.53
69306;BME280;56427;51.580;4.656;2023-08-30T10:24:35;100584.59;;;18.39;66.03
69306;BME280;56427;51.580;4.656;2023-08-30T10:27:05;100590.59;;;18.72;64.32
69306;BME280;56427;51.580;4.656;2023-08-30T10:29:33;100584.75;;;18.99;62.78
69306;BME280;56427;51.580;4.656;2023-08-30T10:32:05;100581.69;;;19.03;64.32
69306;BME280;56427;51.580;4.656;2023-08-30T10:34:33;100586.50;;;19.58;62.32
69306;BME280;56427;51.580;4.656;2023-08-30T10:37:03;100585.81;;;19.94;59.44
69306;BME280;56427;51.580;4.656;2023-08-30T10:39:38;100585.41;;;21.11;56.26
69306;BME280;56427;51.580;4.656;2023-08-30T10:42:15;100587.19;;;20.92;54.69
69306;BME280;56427;51.580;4.656;2023-08-30T10:44:52;100587.66;;;20.78;55.78
69306;BME280;56427;51.580;4.656;2023-08-30T10:47:27;100593.31;;;19.99;56.71
69306;BME280;56427;51.580;4.656;2023-08-30T10:49:58;100593.44;;;19.59;58.28
69306;BME280;56427;51.580;4.656;2023-08-30T10:52:24;100603.56;;;19.83;57.48
69306;BME280;56427;51.580;4.656;2023-08-30T10:54:50;100598.00;;;20.05;55.98
69306;BME280;56427;51.580;4.656;2023-08-30T10:57:23;100607.16;;;19.62;57.77
69306;BME280;56427;51.580;4.656;2023-08-30T11:00:09;100596.72;;;20.19;56.90
69306;BME280;56427;51.580;4.656;2023-08-30T11:02:38;100600.06;;;19.44;56.94
69306;BME280;56427;51.580;4.656;2023-08-30T11:05:06;100600.59;;;19.47;58.49
69306;BME280;56427;51.580;4.656;2023-08-30T11:07:32;100605.53;;;19.11;59.58
69306;BME280;56427;51.580;4.656;2023-08-30T11:09:58;100607.34;;;18.50;60.65
69306;BME280;56427;51.580;4.656;2023-08-30T11:12:23;100622.94;;;18.42;58.95
69306;BME280;56427;51.580;4.656;2023-08-30T11:14:51;100621.91;;;18.64;58.32
69306;BME280;56427;51.580;4.656;2023-08-30T11:17:18;100611.88;;;19.09;58.13
69306;BME280;56427;51.580;4.656;2023-08-30T11:19:44;100611.66;;;19.31;56.31
69306;BME280;56427;51.580;4.656;2023-08-30T11:22:10;100608.53;;;19.86;56.75
69306;BME280;56427;51.580;4.656;2023-08-30T11:24:37;100610.94;;;19.29;55.45
69306;BME280;56427;51.580;4.656;2023-08-30T11:27:03;100617.44;;;19.16;55.56
69306;BME280;56427;51.580;4.656;2023-08-30T11:29:28;100614.16;;;18.83;57.76
69306;BME280;56427;51.580;4.656;2023-08-30T11:31:54;100611.78;;;18.59;59.40
69306;BME280;56427;51.580;4.656;2023-08-30T11:34:20;100622.44;;;18.78;58.04
69306;BME280;56427;51.580;4.656;2023-08-30T11:36:47;100623.84;;;19.32;56.62
69306;BME280;56427;51.580;4.656;2023-08-30T11:39:13;100612.09;;;19.46;54.68
69306;BME280;56427;51.580;4.656;2023-08-30T11:41:39;100606.66;;;19.28;54.66
69306;BME280;56427;51.580;4.656;2023-08-30T11:44:05;100617.00;;;19.70;53.45
69306;BME280;56427;51.580;4.656;2023-08-30T11:46:30;100614.25;;;18.72;55.48
69306;BME280;56427;51.580;4.656;2023-08-30T11:48:57;100616.63;;;18.84;56.43
69306;BME280;56427;51.580;4.656;2023-08-30T11:51:23;100611.19;;;19.07;56.32
69306;BME280;56427;51.580;4.656;2023-08-30T11:53:48;100616.72;;;19.63;55.41
69306;BME280;56427;51.580;4.656;2023-08-30T11:56:15;100618.31;;;20.32;54.92
69306;BME280;56427;51.580;4.656;2023-08-30T11:58:42;100623.56;;;20.52;54.06
69306;BME280;56427;51.580;4.656;2023-08-30T12:01:09;100631.06;;;20.46;53.95
69306;BME280;56427;51.580;4.656;2023-08-30T12:03:34;100632.78;;;20.09;53.85
69306;BME280;56427;51.580;4.656;2023-08-30T12:06:00;100639.06;;;18.89;53.91
69306;BME280;56427;51.580;4.656;2023-08-30T12:08:28;100632.09;;;18.68;54.79
69306;BME280;56427;51.580;4.656;2023-08-30T12:10:54;100632.91;;;18.99;54.81
69306;BME280;56427;51.580;4.656;2023-08-30T12:15:54;100640.84;;;19.28;53.65
69306;BME280;56427;51.580;4.656;2023-08-30T12:21:00;100642.50;;;19.70;53.21
69306;BME280;56427;51.580;4.656;2023-08-30T12:23:27;100641.53;;;19.71;53.54
69306;BME280;56427;51.580;4.656;2023-08-30T12:26:07;100653.09;;;18.68;54.74
69306;BME280;56427;51.580;4.656;2023-08-30T12:28:34;100656.28;;;18.51;55.19
69306;BME280;56427;51.580;4.656;2023-08-30T12:31:00;100652.06;;;18.39;57.10
69306;BME280;56427;51.580;4.656;2023-08-30T12:33:27;100642.34;;;19.61;53.98
69306;BME280;56427;51.580;4.656;2023-08-30T12:35:54;100642.06;;;20.03;53.00
69306;BME280;56427;51.580;4.656;2023-08-30T12:38:20;100656.03;;;20.52;50.69
69306;BME280;56427;51.580;4.656;2023-08-30T12:40:52;100657.44;;;20.46;51.68
69306;BME280;56427;51.580;4.656;2023-08-30T12:43:18;100646.53;;;19.74;53.38
69306;BME280;56427;51.580;4.656;2023-08-30T12:45:45;100649.38;;;19.61;54.01
69306;BME280;56427;51.580;4.656;2023-08-30T12:48:12;100664.41;;;19.30;56.34
69306;BME280;56427;51.580;4.656;2023-08-30T12:50:39;100665.19;;;18.80;56.60
69306;BME280;56427;51.580;4.656;2023-08-30T12:53:06;100649.00;;;18.13;58.20